createdAt,value
2023-01-06T00:00:05.351Z,8.89
2023-01-06T00:01:04.375Z,8.89
2023-01-06T00:02:04.408Z,8.99
2023-01-06T00:03:04.325Z,8.81
2023-01-06T00:04:04.339Z,8.88
2023-01-06T00:05:04.286Z,8.95
2023-01-06T00:06:04.303Z,8.78
2023-01-06T00:07:04.323Z,8.74
2023-01-06T00:08:04.327Z,8.81
2023-01-06T00:09:04.346Z,8.90
2023-01-06T00:10:04.306Z,8.78
2023-01-06T00:11:04.338Z,8.85
2023-01-06T00:12:04.380Z,8.83
2023-01-06T00:13:04.224Z,8.93
2023-01-06T00:14:04.282Z,8.93
2023-01-06T00:15:04.285Z,8.89
2023-01-06T00:16:04.306Z,8.99
2023-01-06T00:17:04.281Z,8.83
2023-01-06T00:18:04.296Z,8.92
2023-01-06T00:19:04.262Z,8.88
2023-01-06T00:20:04.277Z,8.93
2023-01-06T00:21:04.233Z,8.98
2023-01-06T00:22:04.222Z,8.93
2023-01-06T00:23:04.245Z,8.93
2023-01-06T00:24:04.192Z,8.88
2023-01-06T00:25:04.189Z,8.85
2023-01-06T00:26:04.184Z,8.86
2023-01-06T00:27:04.260Z,8.86
2023-01-06T00:28:04.212Z,8.98
2023-01-06T00:29:04.174Z,8.78
2023-01-06T00:30:04.139Z,8.90
2023-01-06T00:31:04.233Z,8.95
2023-01-06T00:32:04.190Z,8.90
2023-01-06T00:33:04.135Z,8.98
2023-01-06T00:34:04.280Z,9.01
2023-01-06T00:35:04.121Z,8.95
2023-01-06T00:36:04.118Z,8.89
2023-01-06T00:37:04.159Z,8.96
2023-01-06T00:38:04.087Z,9.03
2023-01-06T00:39:04.087Z,8.95
2023-01-06T00:40:04.141Z,8.99
2023-01-06T00:41:04.115Z,8.92
2023-01-06T00:42:04.135Z,8.89
2023-01-06T00:43:04.170Z,8.99
2023-01-06T00:44:04.060Z,8.98
2023-01-06T00:45:04.284Z,8.93
2023-01-06T00:46:04.153Z,8.99
2023-01-06T00:47:04.025Z,9.03
2023-01-06T00:48:04.080Z,9.01
2023-01-06T00:49:05.600Z,8.96
2023-01-06T00:50:05.082Z,9.01
2023-01-06T00:51:04.067Z,9.01
2023-01-06T00:52:04.040Z,9.01
2023-01-06T00:53:04.016Z,9.04
2023-01-06T00:54:03.996Z,9.08
2023-01-06T00:55:04.012Z,9.04
2023-01-06T00:56:04.123Z,9.01
2023-01-06T00:57:04.013Z,8.99
2023-01-06T00:58:03.973Z,8.98
2023-01-06T00:59:04.083Z,9.11
2023-01-06T01:00:03.964Z,8.99
2023-01-06T01:01:04.343Z,9.16
2023-01-06T01:02:04.076Z,9.09
2023-01-06T01:03:04.027Z,9.18
2023-01-06T01:04:03.936Z,9.01
2023-01-06T01:05:03.921Z,9.14
2023-01-06T01:06:03.922Z,9.19
2023-01-06T01:07:03.948Z,9.16
2023-01-06T01:08:03.900Z,9.22
2023-01-06T01:09:03.917Z,9.24
2023-01-06T01:10:03.886Z,9.22
2023-01-06T01:11:04.193Z,9.19
2023-01-06T01:12:03.922Z,9.22
2023-01-06T01:13:03.889Z,9.23
2023-01-06T01:14:03.887Z,9.04
2023-01-06T01:15:03.984Z,9.08
2023-01-06T01:16:03.948Z,9.03
2023-01-06T01:17:03.851Z,9.11
2023-01-06T01:18:03.901Z,9.04
2023-01-06T01:19:03.853Z,8.99
2023-01-06T01:20:03.874Z,9.04
2023-01-06T01:21:03.809Z,8.96
2023-01-06T01:22:03.875Z,8.99
2023-01-06T01:23:03.828Z,9.03
2023-01-06T01:24:03.808Z,9.11
2023-01-06T01:25:03.814Z,9.09
2023-01-06T01:26:03.785Z,9.14
2023-01-06T01:27:03.841Z,9.19
2023-01-06T01:28:03.803Z,9.15
2023-01-06T01:29:03.848Z,9.23
2023-01-06T01:30:03.800Z,9.22
2023-01-06T01:31:03.932Z,9.23
2023-01-06T01:32:03.765Z,9.30
2023-01-06T01:33:03.776Z,9.26
2023-01-06T01:34:03.838Z,9.12
2023-01-06T01:35:04.767Z,9.22
2023-01-06T01:36:03.764Z,9.26
2023-01-06T01:37:03.765Z,9.22
2023-01-06T01:38:03.775Z,9.18
2023-01-06T01:39:03.757Z,9.16
2023-01-06T01:40:03.838Z,9.15
2023-01-06T01:41:03.719Z,9.24
2023-01-06T01:42:03.750Z,9.19
2023-01-06T01:43:03.702Z,9.19
2023-01-06T01:44:03.675Z,9.14
2023-01-06T01:45:03.839Z,9.23
2023-01-06T01:46:03.737Z,9.29
2023-01-06T01:47:03.776Z,9.34
2023-01-06T01:48:03.709Z,9.40
2023-01-06T01:49:03.666Z,9.34
2023-01-06T01:50:03.670Z,9.29
2023-01-06T01:51:03.692Z,9.32
2023-01-06T01:52:03.651Z,9.32
2023-01-06T01:53:03.652Z,9.36
2023-01-06T01:54:03.645Z,9.44
2023-01-06T01:55:03.678Z,9.37
2023-01-06T01:56:03.683Z,9.41
2023-01-06T01:57:03.672Z,9.32
2023-01-06T01:58:03.638Z,9.22
2023-01-06T01:59:03.632Z,9.32
2023-01-06T02:00:03.619Z,9.30
2023-01-06T02:01:03.590Z,9.40
2023-01-06T02:02:03.710Z,9.19
2023-01-06T02:03:03.691Z,9.33
2023-01-06T02:04:03.579Z,9.29
2023-01-06T02:05:03.596Z,9.26
2023-01-06T02:06:03.557Z,9.37
2023-01-06T02:07:03.648Z,9.33
2023-01-06T02:08:03.548Z,9.29
2023-01-06T02:09:03.609Z,9.34
2023-01-06T02:10:03.569Z,9.26
2023-01-06T02:11:03.541Z,9.41
2023-01-06T02:12:03.550Z,9.27
2023-01-06T02:13:03.564Z,9.26
2023-01-06T02:14:03.535Z,9.22
2023-01-06T02:15:03.524Z,9.24
2023-01-06T02:16:03.562Z,9.29
2023-01-06T02:17:03.553Z,9.16
2023-01-06T02:18:03.573Z,9.16
2023-01-06T02:19:03.594Z,9.22
2023-01-06T02:20:03.525Z,9.26
2023-01-06T02:21:03.528Z,9.27
2023-01-06T02:22:03.456Z,9.37
2023-01-06T02:23:03.498Z,9.30
2023-01-06T02:24:03.601Z,9.30
2023-01-06T02:25:03.461Z,9.37
2023-01-06T02:26:03.482Z,9.42
2023-01-06T02:27:03.467Z,9.44
2023-01-06T02:28:03.458Z,9.44
2023-01-06T02:29:03.610Z,9.33
2023-01-06T02:30:03.458Z,9.34
2023-01-06T02:31:03.493Z,9.44
2023-01-06T02:32:03.431Z,9.36
2023-01-06T02:33:03.406Z,9.37
2023-01-06T02:34:03.432Z,9.30
2023-01-06T02:35:03.525Z,9.24
2023-01-06T02:36:03.491Z,9.23
2023-01-06T02:37:03.426Z,9.30
2023-01-06T02:38:03.387Z,9.32
2023-01-06T02:39:03.454Z,9.27
2023-01-06T02:40:03.491Z,9.30
2023-01-06T02:41:03.370Z,9.27
2023-01-06T02:42:03.354Z,9.26
2023-01-06T02:43:03.378Z,9.29
2023-01-06T02:44:03.342Z,9.37
2023-01-06T02:45:03.365Z,9.29
2023-01-06T02:46:03.435Z,9.34
2023-01-06T02:47:03.351Z,9.40
2023-01-06T02:48:03.345Z,9.37
2023-01-06T02:49:03.340Z,9.33
2023-01-06T02:50:03.320Z,9.41
2023-01-06T02:51:03.430Z,9.44
2023-01-06T02:52:03.301Z,9.41
2023-01-06T02:53:03.272Z,9.44
2023-01-06T02:54:03.308Z,9.45
2023-01-06T02:55:03.331Z,9.36
2023-01-06T02:56:03.320Z,9.45
2023-01-06T02:57:03.322Z,9.36
2023-01-06T02:58:03.330Z,9.33
2023-01-06T02:59:03.279Z,9.29
2023-01-06T03:00:03.297Z,9.41
2023-01-06T03:01:03.245Z,9.44
2023-01-06T03:02:03.520Z,9.42
2023-01-06T03:03:03.276Z,9.40
2023-01-06T03:04:03.264Z,9.27
2023-01-06T03:05:03.278Z,9.45
2023-01-06T03:06:03.262Z,9.36
2023-01-06T03:07:03.330Z,9.42
2023-01-06T03:08:03.333Z,9.47
2023-01-06T03:09:03.202Z,9.55
2023-01-06T03:10:03.192Z,9.47
2023-01-06T03:11:03.256Z,9.47
2023-01-06T03:12:03.198Z,9.45
2023-01-06T03:13:03.224Z,9.52
2023-01-06T03:14:03.152Z,9.51
2023-01-06T03:15:03.222Z,9.52
2023-01-06T03:16:03.226Z,9.50
2023-01-06T03:17:03.153Z,9.50
2023-01-06T03:18:03.127Z,9.47
2023-01-06T03:19:03.172Z,9.47
2023-01-06T03:20:03.159Z,9.41
2023-01-06T03:21:03.183Z,9.42
2023-01-06T03:22:03.127Z,9.33
2023-01-06T03:23:03.220Z,9.40
2023-01-06T03:24:03.138Z,9.44
2023-01-06T03:25:03.114Z,9.40
2023-01-06T03:26:03.088Z,9.41
2023-01-06T03:27:03.130Z,9.41
2023-01-06T03:28:03.134Z,9.45
2023-01-06T03:29:03.153Z,9.36
2023-01-06T03:30:03.188Z,9.37
2023-01-06T03:31:03.130Z,9.36
2023-01-06T03:32:03.129Z,9.40
2023-01-06T03:33:03.099Z,9.42
2023-01-06T03:34:03.076Z,9.41
2023-01-06T03:35:03.159Z,9.50
2023-01-06T03:36:03.046Z,9.41
2023-01-06T03:37:03.096Z,9.51
2023-01-06T03:38:03.054Z,9.45
2023-01-06T03:39:03.150Z,9.41
2023-01-06T03:40:03.042Z,9.42
2023-01-06T03:41:03.134Z,9.45
2023-01-06T03:42:03.038Z,9.50
2023-01-06T03:43:03.018Z,9.54
2023-01-06T03:44:03.057Z,9.55
2023-01-06T03:45:03.003Z,9.44
2023-01-06T03:46:03.040Z,9.62
2023-01-06T03:47:02.965Z,9.57
2023-01-06T03:48:03.034Z,9.51
2023-01-06T03:49:03.010Z,9.47
2023-01-06T03:50:02.966Z,9.54
2023-01-06T03:51:03.000Z,9.54
2023-01-06T03:52:03.075Z,9.47
2023-01-06T03:53:02.946Z,9.59
2023-01-06T03:54:02.967Z,9.55
2023-01-06T03:55:03.014Z,9.51
2023-01-06T03:56:02.939Z,9.44
2023-01-06T03:57:02.955Z,9.41
2023-01-06T03:58:02.894Z,9.40
2023-01-06T03:59:02.939Z,9.45
2023-01-06T04:00:02.904Z,9.54
2023-01-06T04:01:02.939Z,9.52
2023-01-06T04:02:02.902Z,9.48
2023-01-06T04:03:02.969Z,9.36
2023-01-06T04:04:02.960Z,9.45
2023-01-06T04:05:02.871Z,9.45
2023-01-06T04:06:02.853Z,9.42
2023-01-06T04:07:02.868Z,9.47
2023-01-06T04:08:02.981Z,9.50
2023-01-06T04:09:02.845Z,9.41
2023-01-06T04:10:02.874Z,9.52
2023-01-06T04:11:02.975Z,9.47
2023-01-06T04:12:02.862Z,9.44
2023-01-06T04:13:02.854Z,9.42
2023-01-06T04:14:02.862Z,9.44
2023-01-06T04:15:02.822Z,9.40
2023-01-06T04:16:02.888Z,9.34
2023-01-06T04:17:02.855Z,9.42
2023-01-06T04:18:02.803Z,9.34
2023-01-06T04:19:02.872Z,9.42
2023-01-06T04:20:02.824Z,9.44
2023-01-06T04:21:02.776Z,9.37
2023-01-06T04:22:02.820Z,9.37
2023-01-06T04:23:02.771Z,9.44
2023-01-06T04:24:02.802Z,9.34
2023-01-06T04:25:02.923Z,9.47
2023-01-06T04:26:02.744Z,9.34
2023-01-06T04:27:02.864Z,9.44
2023-01-06T04:28:02.739Z,9.50
2023-01-06T04:29:02.800Z,9.51
2023-01-06T04:30:02.834Z,9.52
2023-01-06T04:31:03.763Z,9.50
2023-01-06T04:32:02.749Z,9.45
2023-01-06T04:33:02.743Z,9.51
2023-01-06T04:34:02.709Z,9.51
2023-01-06T04:35:02.742Z,9.55
2023-01-06T04:36:02.842Z,9.55
2023-01-06T04:37:02.672Z,9.45
2023-01-06T04:38:02.725Z,9.51
2023-01-06T04:39:02.670Z,9.42
2023-01-06T04:40:02.679Z,9.47
2023-01-06T04:41:02.787Z,9.42
2023-01-06T04:42:02.660Z,9.36
2023-01-06T04:43:02.761Z,9.47
2023-01-06T04:44:02.660Z,9.50
2023-01-06T04:45:02.671Z,9.52
2023-01-06T04:46:02.674Z,9.60
2023-01-06T04:47:02.647Z,9.57
2023-01-06T04:48:02.645Z,9.63
2023-01-06T04:49:02.584Z,9.62
2023-01-06T04:50:02.609Z,9.62
2023-01-06T04:51:02.605Z,9.73
2023-01-06T04:52:02.657Z,9.77
2023-01-06T04:53:02.619Z,9.81
2023-01-06T04:54:02.591Z,9.81
2023-01-06T04:55:02.577Z,9.77
2023-01-06T04:56:02.597Z,9.90
2023-01-06T04:57:02.603Z,10.03
2023-01-06T04:58:02.606Z,9.93
2023-01-06T04:59:02.566Z,10.08
2023-01-06T05:00:02.569Z,10.12
2023-01-06T05:01:02.605Z,10.24
2023-01-06T05:02:02.603Z,10.35
2023-01-06T05:03:02.649Z,10.23
2023-01-06T05:04:02.559Z,10.34
2023-01-06T05:05:02.542Z,10.24
2023-01-06T05:06:02.518Z,10.28
2023-01-06T05:07:02.556Z,10.28
2023-01-06T05:08:02.559Z,10.30
2023-01-06T05:09:02.600Z,10.24
2023-01-06T05:10:02.493Z,10.30
2023-01-06T05:11:02.481Z,10.30
2023-01-06T05:12:02.503Z,10.31
2023-01-06T05:13:02.491Z,10.38
2023-01-06T05:14:02.501Z,10.23
2023-01-06T05:15:02.574Z,10.42
2023-01-06T05:16:02.488Z,10.45
2023-01-06T05:17:02.484Z,10.38
2023-01-06T05:18:02.447Z,10.48
2023-01-06T05:19:02.448Z,10.49
2023-01-06T05:20:02.446Z,10.39
2023-01-06T05:21:02.444Z,10.45
2023-01-06T05:22:02.464Z,10.39
2023-01-06T05:23:02.388Z,10.43
2023-01-06T05:24:02.454Z,10.42
2023-01-06T05:25:03.465Z,10.35
2023-01-06T05:26:02.415Z,10.45
2023-01-06T05:27:02.397Z,10.39
2023-01-06T05:28:02.401Z,10.36
2023-01-06T05:29:02.409Z,10.45
2023-01-06T05:30:02.434Z,10.41
2023-01-06T05:31:02.458Z,10.30
2023-01-06T05:32:02.394Z,10.43
2023-01-06T05:33:02.376Z,10.48
2023-01-06T05:34:02.354Z,10.48
2023-01-06T05:35:02.343Z,10.41
2023-01-06T05:36:02.356Z,10.38
2023-01-06T05:37:02.362Z,10.36
2023-01-06T05:38:02.324Z,10.30
2023-01-06T05:39:02.340Z,10.41
2023-01-06T05:40:02.338Z,10.38
2023-01-06T05:41:02.319Z,10.39
2023-01-06T05:42:02.279Z,10.28
2023-01-06T05:43:02.327Z,10.27
2023-01-06T05:44:02.282Z,10.26
2023-01-06T05:45:02.341Z,10.34
2023-01-06T05:46:02.380Z,10.30
2023-01-06T05:47:02.369Z,10.36
2023-01-06T05:48:02.292Z,10.28
2023-01-06T05:49:02.283Z,10.35
2023-01-06T05:50:02.298Z,10.24
2023-01-06T05:51:02.327Z,10.36
2023-01-06T05:52:02.270Z,10.21
2023-01-06T05:53:02.277Z,10.23
2023-01-06T05:54:02.254Z,10.16
2023-01-06T05:55:02.249Z,10.26
2023-01-06T05:56:02.238Z,10.14
2023-01-06T05:57:02.260Z,10.17
2023-01-06T05:58:02.232Z,10.14
2023-01-06T05:59:02.250Z,10.26
2023-01-06T06:00:02.188Z,10.21
2023-01-06T06:01:03.134Z,10.35
2023-01-06T06:02:02.241Z,10.41
2023-01-06T06:03:02.300Z,10.34
2023-01-06T06:04:02.244Z,10.23
2023-01-06T06:05:02.198Z,10.26
2023-01-06T06:06:02.214Z,10.18
2023-01-06T06:07:02.140Z,10.10
2023-01-06T06:08:02.186Z,10.14
2023-01-06T06:09:02.162Z,10.21
2023-01-06T06:10:02.202Z,10.01
2023-01-06T06:11:34.151Z,10.21
2023-01-06T06:12:02.110Z,10.18
2023-01-06T06:13:02.132Z,10.21
2023-01-06T06:14:02.097Z,10.08
2023-01-06T06:15:02.110Z,10.06
2023-01-06T06:16:02.129Z,9.99
2023-01-06T06:17:02.185Z,9.99
2023-01-06T06:18:02.083Z,9.99
2023-01-06T06:19:02.198Z,10.03
2023-01-06T06:20:02.087Z,9.90
2023-01-06T06:21:02.091Z,9.99
2023-01-06T06:22:02.057Z,9.98
2023-01-06T06:23:02.066Z,10.02
2023-01-06T06:24:02.053Z,9.88
2023-01-06T06:25:02.051Z,9.96
2023-01-06T06:26:02.064Z,9.90
2023-01-06T06:27:02.013Z,9.85
2023-01-06T06:28:02.118Z,9.96
2023-01-06T06:29:02.016Z,9.90
2023-01-06T06:30:01.995Z,9.93
2023-01-06T06:31:02.022Z,9.88
2023-01-06T06:32:01.994Z,9.93
2023-01-06T06:33:02.108Z,9.80
2023-01-06T06:34:01.999Z,9.87
2023-01-06T06:35:02.114Z,9.90
2023-01-06T06:36:02.009Z,9.94
2023-01-06T06:37:01.982Z,9.94
2023-01-06T06:38:01.952Z,9.91
2023-01-06T06:39:02.122Z,9.88
2023-01-06T06:40:01.979Z,9.85
2023-01-06T06:41:01.925Z,9.84
2023-01-06T06:42:01.976Z,9.66
2023-01-06T06:43:01.947Z,9.73
2023-01-06T06:44:01.953Z,9.77
2023-01-06T06:45:01.968Z,9.78
2023-01-06T06:46:01.997Z,9.81
2023-01-06T06:47:01.927Z,9.72
2023-01-06T06:48:01.919Z,9.75
2023-01-06T06:49:01.955Z,9.75
2023-01-06T06:50:01.895Z,9.81
2023-01-06T06:51:01.981Z,9.77
2023-01-06T06:52:01.889Z,9.80
2023-01-06T06:53:01.889Z,9.75
2023-01-06T06:54:01.915Z,9.77
2023-01-06T06:55:01.974Z,9.72
2023-01-06T06:56:01.886Z,9.75
2023-01-06T06:57:01.865Z,9.73
2023-01-06T06:58:01.861Z,9.81
2023-01-06T06:59:01.868Z,9.75
2023-01-06T07:00:01.843Z,9.78
2023-01-06T07:01:01.885Z,9.81
2023-01-06T07:02:01.950Z,9.78
2023-01-06T07:03:01.825Z,9.85
2023-01-06T07:04:01.824Z,9.80
2023-01-06T07:05:01.819Z,9.84
2023-01-06T07:06:01.833Z,9.87
2023-01-06T07:07:01.904Z,9.85
2023-01-06T07:08:01.813Z,9.75
2023-01-06T07:09:01.760Z,9.77
2023-01-06T07:10:01.811Z,9.69
2023-01-06T07:11:01.794Z,9.83
2023-01-06T07:12:01.827Z,9.70
2023-01-06T07:13:02.954Z,9.73
2023-01-06T07:14:01.769Z,9.77
2023-01-06T07:15:01.737Z,9.75
2023-01-06T07:16:01.861Z,9.73
2023-01-06T07:17:01.749Z,9.70
2023-01-06T07:18:01.761Z,9.73
2023-01-06T07:19:01.735Z,9.65
2023-01-06T07:20:01.729Z,9.65
2023-01-06T07:21:01.723Z,9.77
2023-01-06T07:22:01.729Z,9.66
2023-01-06T07:23:01.842Z,9.69
2023-01-06T07:24:01.709Z,9.63
2023-01-06T07:25:01.678Z,9.77
2023-01-06T07:26:01.688Z,9.75
2023-01-06T07:27:01.684Z,9.77
2023-01-06T07:28:01.801Z,9.67
2023-01-06T07:29:01.651Z,9.77
2023-01-06T07:30:01.648Z,9.73
2023-01-06T07:31:01.734Z,9.80
2023-01-06T07:32:01.658Z,9.80
2023-01-06T07:33:01.630Z,9.78
2023-01-06T07:34:01.744Z,9.69
2023-01-06T07:35:01.637Z,9.81
2023-01-06T07:36:01.612Z,9.78
2023-01-06T07:37:01.598Z,9.77
2023-01-06T07:38:01.600Z,9.77
2023-01-06T07:39:02.730Z,9.84
2023-01-06T07:40:01.603Z,9.91
2023-01-06T07:41:01.603Z,9.93
2023-01-06T07:42:01.578Z,10.02
2023-01-06T07:43:01.587Z,9.94
2023-01-06T07:44:01.581Z,9.96
2023-01-06T07:45:01.608Z,10.01
2023-01-06T07:46:01.569Z,10.05
2023-01-06T07:47:01.567Z,10.01
2023-01-06T07:48:01.608Z,9.99
2023-01-06T07:49:01.550Z,10.02
2023-01-06T07:50:01.562Z,9.98
2023-01-06T07:51:01.545Z,10.01
2023-01-06T07:52:01.529Z,9.98
2023-01-06T07:53:01.559Z,9.93
2023-01-06T07:54:01.537Z,9.96
2023-01-06T07:55:02.615Z,9.90
2023-01-06T07:56:01.529Z,9.91
2023-01-06T07:57:01.540Z,9.91
2023-01-06T07:58:01.464Z,9.88
2023-01-06T07:59:01.510Z,9.84
2023-01-06T08:00:01.500Z,9.96
2023-01-06T08:01:01.495Z,9.88
2023-01-06T08:02:01.654Z,9.90
2023-01-06T08:03:01.491Z,9.91
2023-01-06T08:04:01.463Z,9.98
2023-01-06T08:05:01.576Z,10.01
2023-01-06T08:06:01.474Z,9.94
2023-01-06T08:07:01.453Z,9.94
2023-01-06T08:08:01.431Z,9.90
2023-01-06T08:09:01.474Z,9.96
2023-01-06T08:10:01.433Z,9.98
2023-01-06T08:11:01.542Z,9.99
2023-01-06T08:12:01.421Z,9.93
2023-01-06T08:13:01.405Z,9.98
2023-01-06T08:14:01.397Z,9.93
2023-01-06T08:15:01.405Z,10.01
2023-01-06T08:16:01.401Z,9.94
2023-01-06T08:17:01.422Z,9.96
2023-01-06T08:18:01.391Z,9.96
2023-01-06T08:19:01.409Z,10.05
2023-01-06T08:20:01.392Z,10.10
2023-01-06T08:21:01.350Z,9.98
2023-01-06T08:22:01.370Z,10.08
2023-01-06T08:23:01.373Z,9.96
2023-01-06T08:24:01.375Z,9.93
2023-01-06T08:25:01.368Z,10.02
2023-01-06T08:26:01.312Z,9.93
2023-01-06T08:27:01.428Z,10.02
2023-01-06T08:28:01.358Z,10.14
2023-01-06T08:29:01.353Z,10.05
2023-01-06T08:30:01.342Z,10.14
2023-01-06T08:31:01.338Z,10.12
2023-01-06T08:32:10.297Z,10.20
2023-01-06T08:33:02.272Z,10.23
2023-01-06T08:34:01.278Z,10.21
2023-01-06T08:35:01.322Z,10.30
2023-01-06T08:36:01.266Z,10.28
2023-01-06T08:37:01.271Z,10.34
2023-01-06T08:38:01.300Z,10.35
2023-01-06T08:39:01.355Z,10.39
2023-01-06T08:40:01.273Z,10.38
2023-01-06T08:41:01.268Z,10.39
2023-01-06T08:42:01.261Z,10.41
2023-01-06T08:43:01.303Z,10.35
2023-01-06T08:44:01.261Z,10.36
2023-01-06T08:45:01.265Z,10.43
2023-01-06T08:46:01.322Z,10.34
2023-01-06T08:47:01.224Z,10.38
2023-01-06T08:48:01.188Z,10.39
2023-01-06T08:49:01.240Z,10.41
2023-01-06T08:50:01.190Z,10.41
2023-01-06T08:51:01.203Z,10.43
2023-01-06T08:52:01.188Z,10.45
2023-01-06T08:53:01.169Z,10.43
2023-01-06T08:54:01.180Z,10.43
2023-01-06T08:55:01.149Z,10.49
2023-01-06T08:56:01.151Z,10.52
2023-01-06T08:57:01.180Z,10.45
2023-01-06T08:58:01.161Z,10.52
2023-01-06T08:59:01.245Z,10.55
2023-01-06T09:00:01.121Z,10.54
2023-01-06T09:01:01.118Z,10.42
2023-01-06T09:02:01.270Z,10.39
2023-01-06T09:03:01.102Z,10.43
2023-01-06T09:04:01.141Z,10.39
2023-01-06T09:05:01.146Z,10.39
2023-01-06T09:06:01.192Z,10.45
2023-01-06T09:07:01.092Z,10.52
2023-01-06T09:08:01.116Z,10.43
2023-01-06T09:09:01.107Z,10.49
2023-01-06T09:10:01.066Z,10.46
2023-01-06T09:11:01.142Z,10.54
2023-01-06T09:12:01.027Z,10.58
2023-01-06T09:13:01.027Z,10.80
2023-01-06T09:14:01.048Z,10.64
2023-01-06T09:15:01.137Z,10.73
2023-01-06T09:16:01.063Z,10.78
